Here is the Quick Look data you requested

The Data originates at the National Weather Service, and is made available here by the UAlbany Department of Atmospheric and Environmental Sciences

Surface Observations

PAAQ 230953Z AUTO 00000KT 10SM CLR M07/M12 A2991 RMK AO2 SLP133 T10671122 TSNO=
PABA 230952Z 08014KT 1 1/2SM -SN BR OVC003 M25/M27 A3045 RMK AO2 SNB34 SLP297
 P0000 T12501272 FZRANO=
PABE 230953Z 17008KT 1/2SM R19R/1600V6000FT FZFG SCT002 OVC012 M04/M06 A3002
 RMK AO2 SLP169 I1000 T10441056 $=
PABI 230953Z AUTO 11015KT 10SM CLR M09/M17 A3006 RMK AO2 SLP217 T10941167 TSNO=
PABL 230956Z AUTO 15013KT 10SM CLR M09/M13 A2999 RMK AO2 PK WND 12029/0924
 SLP158 T10891133 FZRANO=
PABR 230948Z AUTO 10022KT 2SM BR SCT004 M19/M21 A3025 RMK AO2 PK WND 10029/0900
 SLP246 T11891211 TSNO=
PABT 230953Z 35005KT 10SM FEW100 M12/M18 A3016 RMK AO2 SLP234 T11221183=
PABV 230956Z AUTO 20005KT 10SM CLR M06/M12 A2994 RMK AO2 SLP147 T10561122
PACD 230953Z 29006KT 10SM FEW030 BKN041 00/M01 A3012 RMK AO2 SLP199 T00001011=
PACV 230953Z 00000KT 10SM CLR M04/M09 A2981 RMK AO2 SLP095 T10391089=
PACZ 230955Z AUTO 18023G29KT 4SM -FZDZ CLR M02/M04 A2987 RMK AO2 PK WND
 18031/0919 SLP125 P0000 T10231038=
PADE 230953Z AUTO 13013KT 10SM CLR M04/M11 A2989 RMK AO2 SLP121 T10391106 TSNO
PADK 230956Z AUTO 23024G28KT 10SM SCT023 BKN050 02/M01 A3007 RMK AO2 PK WND
 23028/0955 SLP182 T00221011 400440006 FZRANO=
PADL 230956Z AUTO 00000KT 9SM BKN055 OVC070 M04/M07 A3003 RMK AO2
 UPB16E23SNE16B23E54 SLP176 P0000 T10391067 FZRANO=
PADQ 230953Z AUTO VRB03KT 10SM CLR 02/M13 A2994 RMK AO2 SLP140 T00221133 TSNO=
PADU 230956Z AUTO 20005KT 10SM CLR 02/M03 A3017 RMK AO2 SLP222 T00221028 FZRANO=
PAED 230956Z AUTO 02003KT 10SM CLR M06/M14 A2992 RMK AO2 SLP130 T10611139=
PAEG 230953Z AUTO 00000KT 10SM CLR M23/M25 A3019 RMK AO2 SLP248 T12281250 TSNO=
PAEH 230955Z AUTO 27011KT 210V320 10SM CLR 00/M03 A3006 RMK AO2 SLP189
PAEI 230956Z AUTO 00000KT 10SM CLR M16/M21 A3008 RMK AO2 SLP201 T11651209 VISNO
 RWY32 $=
PAEM 230956Z AUTO 16009KT 10SM BKN029 M04/M05 A2992 RMK AO2 SLP191 T10441050
PAEN 230953Z AUTO 00000KT 10SM CLR M11/M13 A2996 RMK AO2 SLP148 T11061133 TSNO=
PAFA 230953Z 00000KT 10SM CLR M16/M19 A3010 RMK AO2 SLP204 T11561189 $=
PAFB 230958Z AUTO 05006KT 10SM CLR M11/M18 A3010 RMK AO2 SLP204 T11111185=
PAFE 230956Z AUTO 02007KT 10SM OVC060 03/M08 A2969 RMK AO2 SLP067 T00331083=
PAFM 230956Z AUTO 04009KT 10SM CLR M08/M14 A3012 RMK AO2 SLP214 T10781144
PAGA 230956Z AUTO 09010KT 10SM CLR M07/M16 A3004 RMK AO2 SLP177 T10671156
PAGK 230953Z AUTO 00000KT 10SM CLR M15/M19 A3001 RMK AO2 SLP209 T11501189 TSNO
PAGL 230956Z AUTO 15016KT 2 1/2SM -SN BR OVC018 M04/M05 A2993 RMK AO2 VIS 2V4
 SLP131 P0000 T10391050 FZRANO=
PAGM 230956Z AUTO 10SM CLR M04/M05 A2963 RMK AO2 SLP040 T10391050 FZRANO $=
PAGS 230956Z AUTO 35008KT 10SM OVC095 03/M10 A2979 RMK AO2 SLP088 T00331100=
PAGY 230953Z AUTO 03020G26KT 10SM OVC060 02/M09 A2994 RMK AO2 PK WND 04026/0953
 SLP139 T00171094 TSNO=
PAHN 230954Z AUTO 33009G20KT 10SM SCT070 01/M09 A2993 RMK AO2 SLP136 T00061094
PAHO 230953Z AUTO 00000KT 10SM CLR M04/M13 A2997 RMK AO2 SLP149 T10391128 TSNO=
PAHP 230956Z AUTO 18011KT 8SM CLR M03/M04 A2991 RMK AO2 SLP168 T10331044 FZRANO=
PAHY 230956Z AUTO 10SM SCT028 BKN050 OVC065 03/01 A2965 RMK AO2 RAB24E44 SLP139
 P0000 T00280011 $=
PAII 230956Z AUTO 28005KT 10SM OVC034 00/M02 A3002 RMK AO2 SLP169 T00001017
PAIL 230953Z AUTO 05005KT 10SM CLR M10/M15 A3002 RMK AO2 SLP170 T11001150 TSNO=
PAIM 230955Z AUTO VRB06KT 10SM CLR M08/M17 A3005 RMK AO2 SLP210 T10801172=
PAIN 230956Z AUTO 00000KT 10SM CLR M19/M21 A2999 RMK AO2 SLP205 T11941211
PAJC 230957Z AUTO 25010KT 10SM SCT021 BKN028 OVC036 04/M01 RMK AO2 SLPNO
 T00391006 $=
PAJN 230953Z 12012KT 10SM SCT090 01/M09 A2979 RMK AO2 SLP086 T00111089=
PAKK 230956Z AUTO 07003KT 10SM FEW120 M04/M13 A2991 RMK AO2 SLP144 T10441133
PAKN 230954Z 00000KT 10SM OVC120 M02/M04 A2998 RMK AO2 SLP152 T10221044 $=
PAKP 230956Z AUTO 18013KT 10SM CLR M16/M19 A3004 RMK AO2 SLP245 T11561189
PAKT 230953Z AUTO 00000KT 9SM -RA BKN010 OVC036 03/02 A2966 RMK AO2 RAB41
 SLP046 P0001 T00330022 TSNO=
PAKV 230953Z AUTO 22004KT 10SM CLR M16/M17 A3005 RMK AO2 UPB0857E10B36E51
 SLP180 P0000 T11561172 TSNO=
PAKW 230953Z AUTO 36003KT 10SM -RA SCT032 OVC045 02/02 A2963 RMK AO2
 UPB46E48RAB48 SLP034 P0000 T00220022 TSNO=
PALH 230953Z 19005KT 10SM CLR M04/M09 A2995 RMK AO2 SLP142 T10441089=
PALU 230955Z AUTO 13015G24KT 10SM BKN200 00/M12 A2988 RMK AO2 PK WND 18047/0914
 SHRAB0809E0940 SLP119 T10051123=
PAMC 230953Z AUTO 00000KT 10SM UP CLR M17/M19 A3005 RMK AO2 UPE0858B45 SLP185
 P0000 T11721194 TSNO=
PAMD 230951Z AUTO 31004KT 10SM CLR 03/M05 A2981 RMK AO2 SLP085 T00281050=
PAMH 230956Z AUTO 05004KT 10SM CLR M07/M16 A3001 RMK AO2 SLP009 T10721156
PAMM 230956Z AUTO VRB04KT 10SM CLR 04/01 A2967 RMK AO2 SLP038 T00390006=
PAMR 230953Z 00000KT 10SM CLR M07/M11 A2993 RMK AO2 SLP138 T10671111=
PANC 230953Z 18004KT 10SM CLR M06/M12 A2993 RMK AO2 SLP139 T10611122 $=
PANI 230956Z AUTO 12006KT 4SM -SN OVC011 M03/M08 A3002 RMK AO2 SLP135 P0000
 T10331083 FZRANO=
PANN 230953Z AUTO 09018G24KT 10SM CLR M04/M16 A3005 RMK AO2 PK WND 08028/0936
 SLP186 T10441156 TSNO=
PANT 230953Z AUTO 00000KT 10SM -RA SCT019 BKN024 OVC048 04/03 A2965 RMK AO2
 RAB44 SLP042 P0000 T00390028 TSNO $=
PAOH 230956Z AUTO 34003KT 10SM CLR M01/M05 A2977 RMK AO2 SLP083 T10061050
PAOM 230953Z AUTO 14012KT 10SM OVC004 M03/M03 A2983 RMK AO2 SNE29 SLP103 P0000
 T10281028 TSNO=
PAOR 230953Z 09003KT 10SM CLR M24/M26 A3012 RMK AO2 SLP263 T12391261=
PAOT 230953Z AUTO 10015KT 10SM CLR M09/M13 A2995 RMK AO2 SLP142 T10891128 TSNO
PAPB 230953Z AUTO 21017KT 9SM SCT022 SCT031 BKN046 02/M01 A2998 RMK AO2 SLP139
 T00221006 TSNO=
PAPG 230956Z AUTO 22007KT 10SM FEW050 03/M03 A2967 RMK AO2 SLP051 T00281033=
PAPH 230956Z AUTO 26009KT 10SM OVC009 02/01 A3007 RMK AO2 RAE18UPB18E54 SLP184
 P0001 T00170011 FZRANO=
PAPO 230956Z AUTO 14027G34KT 9SM -SN CLR M06/M07 A2985 RMK AO2 PK WND
 14034/0955 SNB52 SLP108 P0000 T10561072 FZRANO=
PAQT 230919Z AUTO 08023KT 1 3/4SM BR CLR M22/M23 A3031 RMK PK WND 09027/0902
PARC 230956Z AUTO 32005KT 10SM CLR M23/M26 A3015 RMK AO2 SLP290 T12281256
PASA 230956Z AUTO 17026G33KT 1 1/2SM -SN BR CLR M02/M04 A2966 RMK AO2 PK WND
 17036/0944 UPE43SNB21E31B43 SLP047 P0000 T10221039 FZRANO $=
PASC 230953Z 09017KT 1 1/4SM BLSN BR OVC004 M22/M24 A3035 RMK AO2 SLP279
PASD 230956Z AUTO 02013KT 10SM FEW045 OVC060 03/M01 A3007 RMK AO2 SLP185
PASH 230956Z AUTO 14013KT 9SM -SN OVC042 M03/M06 A2982 RMK AO2 SNB15 SLP100
 P0000 T10331061 FZRANO=
PASI 230953Z 08004KT 10SM FEW060 OVC080 04/M08 A2965 RMK AO2 SLP040 T00441078=
PASK 230956Z AUTO 06019KT 10SM CLR M10/M13 A3002 RMK AO2 SLP162 T11001133
PASL 230956Z AUTO 00000KT 10SM CLR M14/M17 A3007 RMK AO2 SLP180 T11441167
PASM 230956Z AUTO 19011KT 5SM BR BKN002 M04/M04 A2997 RMK AO2 SNB13E28 SLP167
 T10391039 FZRANO=
PASN 230953Z AUTO 21016G21KT 7SM BKN032 01/M01 A2993 RMK AO2 SLP136 T00111011
PASO 230953Z AUTO 00000KT 10SM CLR M04/M10 A2996 RMK AO2 SLP145 T10391100 TSNO=
PASV 230955Z AUTO 00000KT 10SM CLR M03/M21 A2993 RMK AO2 LTG DSNT SW SLP169
PASX 230956Z AUTO 00000KT 10SM CLR M11/M15 A2998 RMK AO2 SLP163 T11111150
PATA 230952Z AUTO 06011KT 10SM CLR M07/M15 A3011 RMK AO2 SLP201 T10721150 TSNO
PATC 230955Z AUTO 17023KT 2 1/2SM -SN OVC003 M03/M03 A2973 RMK AO2 PK WND
 17031/0858 SNB0855 SLP073 P0000 T10341034 $=
PATG 230956Z AUTO 26005KT 10SM OVC015 M04/M05 A3007 RMK AO2 SLP280 T10391050
PATK 230953Z AUTO 02006KT 10SM CLR M03/M17 A2992 RMK AO2 SLP139 T10281167 TSNO=
PATL 230955Z AUTO 05002KT 10SM CLR M09/M14 A3003 RMK AO2 SLP191 T10871138=
PATO 230953Z AUTO VRB03KT 10SM CLR M08/M13 A2994 RMK AO2 SLP139 T10781128 TSNO=
PAUN 230956Z AUTO 11009KT 3SM -SN BKN012 OVC018 M04/M08 A2999 RMK AO2 SNB34
 SLP161 P0000 T10441083 FZRANO=
PAVD 230956Z AUTO VRB04KT 10SM CLR 01/M14 A2988 RMK AO2 SLP145 T00111144 PWINO
PAVL 230953Z AUTO 11015KT 10SM CLR M06/M11 A2990 RMK AO2 SLP124 T10561106 TSNO
 PNO $=
PAWD 230953Z AUTO 02018G24KT 10SM CLR M01/M13 A2988 RMK AO2 PK WND 03033/0916
 SLP117 T10061133 TSNO $=
PAWG 230956Z AUTO 08008KT 10SM BKN042 04/M04 A2968 RMK AO2 SLP051 T00391039
 TSNO $=
PAWI 230953Z AUTO 08022KT 1/2SM -SN FZFG OVC003 M13/M15 A3008 RMK AO2 PK WND
 08027/0918 SLP186 P0000 T11331150 TSNO=
PAWN 230956Z AUTO 34005KT 10SM CLR M03/M13 A2996 RMK AO2 SLP160 T10331133
PAYA 230953Z AUTO 23003KT 10SM CLR M02/M06 A2975 RMK AO2 SLP075 T10171061 TSNO=
PAZK 230956Z AUTO 04003KT 10SM CLR M12/M20 A2988 RMK AO2 SLP192 T11221200
PPIZ 230956Z AUTO 07017KT 7SM -SN CLR M06/M08 A2994 RMK AO2 SNB47 SLP141 P0000
 T10611078 FZRANO TSNO=